sensor_id;sensor_type;location;lat;lon;timestamp;pressure;altitude;pressure_sealevel;temperature
70415;BMP280;57837;52.064;113.478;2023-03-21T00:01:30;92298.19;;;1.85
70415;BMP280;57837;52.064;113.478;2023-03-21T00:04:34;92301.56;;;2.20
70415;BMP280;57837;52.064;113.478;2023-03-21T00:07:53;92304.50;;;2.56
70415;BMP280;57837;52.064;113.478;2023-03-21T00:10:58;92304.47;;;2.69
70415;BMP280;57837;52.064;113.478;2023-03-21T00:14:03;92300.91;;;3.01
70415;BMP280;57837;52.064;113.478;2023-03-21T00:17:08;92302.53;;;3.29
70415;BMP280;57837;52.064;113.478;2023-03-21T00:20:13;92294.72;;;3.76
70415;BMP280;57837;52.064;113.478;2023-03-21T00:23:19;92293.06;;;3.82
70415;BMP280;57837;52.064;113.478;2023-03-21T00:26:24;92291.81;;;3.96
70415;BMP280;57837;52.064;113.478;2023-03-21T00:29:28;92281.03;;;3.92
70415;BMP280;57837;52.064;113.478;2023-03-21T00:32:31;92282.50;;;4.11
70415;BMP280;57837;52.064;113.478;2023-03-21T00:35:41;92285.81;;;4.39
70415;BMP280;57837;52.064;113.478;2023-03-21T00:39:03;92289.59;;;4.16
70415;BMP280;57837;52.064;113.478;2023-03-21T00:42:08;92299.00;;;4.10
70415;BMP280;57837;52.064;113.478;2023-03-21T00:45:12;92297.59;;;4.09
70415;BMP280;57837;52.064;113.478;2023-03-21T00:48:15;92303.28;;;4.22
70415;BMP280;57837;52.064;113.478;2023-03-21T00:51:21;92304.53;;;4.58
70415;BMP280;57837;52.064;113.478;2023-03-21T00:54:29;92299.72;;;5.06
70415;BMP280;57837;52.064;113.478;2023-03-21T00:57:33;92308.53;;;5.32
70415;BMP280;57837;52.064;113.478;2023-03-21T01:00:41;92311.03;;;5.59
70415;BMP280;57837;52.064;113.478;2023-03-21T01:03:45;92311.34;;;5.52
70415;BMP280;57837;52.064;113.478;2023-03-21T01:06:53;92314.06;;;5.49
70415;BMP280;57837;52.064;113.478;2023-03-21T01:09:56;92323.22;;;5.92
70415;BMP280;57837;52.064;113.478;2023-03-21T01:13:00;92321.69;;;6.18
70415;BMP280;57837;52.064;113.478;2023-03-21T01:16:06;92322.75;;;6.35
70415;BMP280;57837;52.064;113.478;2023-03-21T01:19:15;92320.84;;;6.45
70415;BMP280;57837;52.064;113.478;2023-03-21T01:22:29;92323.59;;;6.41
70415;BMP280;57837;52.064;113.478;2023-03-21T01:25:33;92313.25;;;6.51
70415;BMP280;57837;52.064;113.478;2023-03-21T01:28:39;92312.44;;;6.68
70415;BMP280;57837;52.064;113.478;2023-03-21T01:31:43;92319.28;;;6.86
70415;BMP280;57837;52.064;113.478;2023-03-21T01:34:47;92321.31;;;7.06
70415;BMP280;57837;52.064;113.478;2023-03-21T01:37:52;92312.19;;;7.05
70415;BMP280;57837;52.064;113.478;2023-03-21T01:40:55;92313.50;;;7.00
70415;BMP280;57837;52.064;113.478;2023-03-21T01:44:04;92315.75;;;7.07
70415;BMP280;57837;52.064;113.478;2023-03-21T01:47:12;92315.03;;;7.21
70415;BMP280;57837;52.064;113.478;2023-03-21T01:50:19;92321.00;;;7.42
70415;BMP280;57837;52.064;113.478;2023-03-21T01:53:50;92318.41;;;7.42
70415;BMP280;57837;52.064;113.478;2023-03-21T01:56:55;92323.91;;;7.50
70415;BMP280;57837;52.064;113.478;2023-03-21T02:00:03;92313.34;;;7.48
70415;BMP280;57837;52.064;113.478;2023-03-21T02:03:20;92314.34;;;7.65
70415;BMP280;57837;52.064;113.478;2023-03-21T02:07:10;92314.22;;;7.89
70415;BMP280;57837;52.064;113.478;2023-03-21T02:10:20;92310.91;;;8.03
70415;BMP280;57837;52.064;113.478;2023-03-21T02:13:27;92314.09;;;8.53
70415;BMP280;57837;52.064;113.478;2023-03-21T02:16:46;92310.13;;;8.72
70415;BMP280;57837;52.064;113.478;2023-03-21T02:34:17;92298.94;;;8.81
70415;BMP280;57837;52.064;113.478;2023-03-21T02:37:40;92296.16;;;8.85
70415;BMP280;57837;52.064;113.478;2023-03-21T02:44:07;92302.72;;;8.60
70415;BMP280;57837;52.064;113.478;2023-03-21T02:47:26;92292.44;;;8.25
70415;BMP280;57837;52.064;113.478;2023-03-21T02:50:34;92301.53;;;7.85
70415;BMP280;57837;52.064;113.478;2023-03-21T02:53:40;92286.19;;;7.47
70415;BMP280;57837;52.064;113.478;2023-03-21T02:56:47;92273.78;;;7.60
70415;BMP280;57837;52.064;113.478;2023-03-21T02:59:51;92266.59;;;7.49
70415;BMP280;57837;52.064;113.478;2023-03-21T03:03:11;92270.59;;;7.65
70415;BMP280;57837;52.064;113.478;2023-03-21T03:07:34;92280.44;;;7.52
70415;BMP280;57837;52.064;113.478;2023-03-21T03:14:13;92268.44;;;7.49
70415;BMP280;57837;52.064;113.478;2023-03-21T03:17:56;92262.03;;;7.44
70415;BMP280;57837;52.064;113.478;2023-03-21T03:21:10;92266.03;;;7.60
70415;BMP280;57837;52.064;113.478;2023-03-21T03:24:29;92263.38;;;7.40
70415;BMP280;57837;52.064;113.478;2023-03-21T03:27:37;92263.66;;;7.27
70415;BMP280;57837;52.064;113.478;2023-03-21T03:30:45;92263.31;;;7.19
70415;BMP280;57837;52.064;113.478;2023-03-21T03:34:16;92269.16;;;7.05
70415;BMP280;57837;52.064;113.478;2023-03-21T03:37:29;92264.91;;;7.17
70415;BMP280;57837;52.064;113.478;2023-03-21T03:40:47;92258.06;;;7.58
70415;BMP280;57837;52.064;113.478;2023-03-21T03:44:10;92265.22;;;7.69
70415;BMP280;57837;52.064;113.478;2023-03-21T03:47:25;92261.72;;;7.51
70415;BMP280;57837;52.064;113.478;2023-03-21T03:51:19;92265.78;;;7.43
70415;BMP280;57837;52.064;113.478;2023-03-21T03:54:45;92257.59;;;7.45
70415;BMP280;57837;52.064;113.478;2023-03-21T03:57:51;92261.44;;;7.35
70415;BMP280;57837;52.064;113.478;2023-03-21T04:00:54;92260.63;;;7.14
70415;BMP280;57837;52.064;113.478;2023-03-21T04:03:59;92248.91;;;6.98
70415;BMP280;57837;52.064;113.478;2023-03-21T04:07:16;92246.00;;;7.20
70415;BMP280;57837;52.064;113.478;2023-03-21T04:10:20;92246.00;;;7.20
70415;BMP280;57837;52.064;113.478;2023-03-21T04:13:25;92248.41;;;7.24
70415;BMP280;57837;52.064;113.478;2023-03-21T04:16:41;92250.19;;;7.03
70415;BMP280;57837;52.064;113.478;2023-03-21T04:19:45;92226.56;;;6.90
70415;BMP280;57837;52.064;113.478;2023-03-21T04:22:49;92230.03;;;7.01
70415;BMP280;57837;52.064;113.478;2023-03-21T04:25:53;92242.88;;;6.87
70415;BMP280;57837;52.064;113.478;2023-03-21T04:29:08;92273.53;;;6.75
70415;BMP280;57837;52.064;113.478;2023-03-21T04:32:30;92224.19;;;6.48
70415;BMP280;57837;52.064;113.478;2023-03-21T04:35:42;92237.22;;;6.59
70415;BMP280;57837;52.064;113.478;2023-03-21T04:38:48;92246.50;;;6.41
70415;BMP280;57837;52.064;113.478;2023-03-21T04:41:52;92240.94;;;6.43
70415;BMP280;57837;52.064;113.478;2023-03-21T04:44:56;92222.00;;;6.07
70415;BMP280;57837;52.064;113.478;2023-03-21T04:48:00;92235.09;;;6.19
70415;BMP280;57837;52.064;113.478;2023-03-21T04:51:05;92240.34;;;6.24
70415;BMP280;57837;52.064;113.478;2023-03-21T04:54:09;92227.84;;;6.32
70415;BMP280;57837;52.064;113.478;2023-03-21T04:57:13;92221.31;;;6.07
70415;BMP280;57837;52.064;113.478;2023-03-21T05:00:17;92234.53;;;6.15
70415;BMP280;57837;52.064;113.478;2023-03-21T05:03:22;92221.09;;;5.96
70415;BMP280;57837;52.064;113.478;2023-03-21T05:06:26;92229.28;;;5.85
70415;BMP280;57837;52.064;113.478;2023-03-21T05:09:31;92228.84;;;5.87
70415;BMP280;57837;52.064;113.478;2023-03-21T05:12:34;92233.53;;;5.88
70415;BMP280;57837;52.064;113.478;2023-03-21T05:15:39;92229.84;;;5.80
70415;BMP280;57837;52.064;113.478;2023-03-21T05:18:43;92227.25;;;5.89
70415;BMP280;57837;52.064;113.478;2023-03-21T05:21:51;92219.59;;;5.80
70415;BMP280;57837;52.064;113.478;2023-03-21T05:24:59;92219.81;;;6.00
70415;BMP280;57837;52.064;113.478;2023-03-21T05:28:12;92213.75;;;5.80
70415;BMP280;57837;52.064;113.478;2023-03-21T05:31:17;92220.16;;;5.75
70415;BMP280;57837;52.064;113.478;2023-03-21T05:34:26;92207.09;;;5.73
70415;BMP280;57837;52.064;113.478;2023-03-21T05:37:30;92218.81;;;5.65
70415;BMP280;57837;52.064;113.478;2023-03-21T05:40:34;92226.97;;;5.54
70415;BMP280;57837;52.064;113.478;2023-03-21T05:43:38;92212.78;;;5.35
70415;BMP280;57837;52.064;113.478;2023-03-21T05:46:43;92217.09;;;5.11
70415;BMP280;57837;52.064;113.478;2023-03-21T05:49:47;92234.53;;;4.88
70415;BMP280;57837;52.064;113.478;2023-03-21T05:52:55;92206.31;;;4.70
70415;BMP280;57837;52.064;113.478;2023-03-21T05:55:58;92217.00;;;4.69
70415;BMP280;57837;52.064;113.478;2023-03-21T05:59:21;92208.31;;;4.48
70415;BMP280;57837;52.064;113.478;2023-03-21T06:02:27;92210.47;;;4.58
70415;BMP280;57837;52.064;113.478;2023-03-21T06:05:38;92202.34;;;4.60
70415;BMP280;57837;52.064;113.478;2023-03-21T06:08:50;92204.19;;;4.59
70415;BMP280;57837;52.064;113.478;2023-03-21T06:11:55;92204.91;;;4.60
70415;BMP280;57837;52.064;113.478;2023-03-21T06:15:04;92201.75;;;4.29
70415;BMP280;57837;52.064;113.478;2023-03-21T06:18:13;92215.22;;;4.11
70415;BMP280;57837;52.064;113.478;2023-03-21T06:21:27;92204.72;;;4.09
70415;BMP280;57837;52.064;113.478;2023-03-21T06:24:32;92231.59;;;4.04
70415;BMP280;57837;52.064;113.478;2023-03-21T06:27:36;92214.78;;;4.03
70415;BMP280;57837;52.064;113.478;2023-03-21T06:30:41;92226.78;;;3.75
70415;BMP280;57837;52.064;113.478;2023-03-21T06:33:56;92230.50;;;3.83
70415;BMP280;57837;52.064;113.478;2023-03-21T06:37:00;92242.56;;;3.83
70415;BMP280;57837;52.064;113.478;2023-03-21T06:40:07;92247.22;;;3.66
70415;BMP280;57837;52.064;113.478;2023-03-21T06:43:12;92239.63;;;3.54
70415;BMP280;57837;52.064;113.478;2023-03-21T06:46:16;92231.75;;;3.39
70415;BMP280;57837;52.064;113.478;2023-03-21T06:49:21;92241.16;;;2.98
70415;BMP280;57837;52.064;113.478;2023-03-21T06:52:25;92241.31;;;3.04
70415;BMP280;57837;52.064;113.478;2023-03-21T06:55:29;92245.78;;;3.12
70415;BMP280;57837;52.064;113.478;2023-03-21T06:58:34;92253.56;;;2.87
70415;BMP280;57837;52.064;113.478;2023-03-21T07:01:39;92245.91;;;2.74
70415;BMP280;57837;52.064;113.478;2023-03-21T07:04:44;92259.91;;;2.83
70415;BMP280;57837;52.064;113.478;2023-03-21T07:07:53;92260.78;;;2.54
70415;BMP280;57837;52.064;113.478;2023-03-21T07:10:57;92259.16;;;2.60
70415;BMP280;57837;52.064;113.478;2023-03-21T07:14:00;92268.97;;;2.49
70415;BMP280;57837;52.064;113.478;2023-03-21T07:17:03;92260.56;;;2.14
70415;BMP280;57837;52.064;113.478;2023-03-21T07:20:07;92259.53;;;1.86
70415;BMP280;57837;52.064;113.478;2023-03-21T07:23:11;92275.44;;;1.78
70415;BMP280;57837;52.064;113.478;2023-03-21T07:26:16;92285.41;;;1.72
70415;BMP280;57837;52.064;113.478;2023-03-21T07:29:19;92271.63;;;1.57
70415;BMP280;57837;52.064;113.478;2023-03-21T07:32:24;92262.06;;;1.73
70415;BMP280;57837;52.064;113.478;2023-03-21T07:35:31;92271.22;;;1.71
70415;BMP280;57837;52.064;113.478;2023-03-21T07:38:34;92273.03;;;1.58
70415;BMP280;57837;52.064;113.478;2023-03-21T07:41:38;92266.03;;;1.62
70415;BMP280;57837;52.064;113.478;2023-03-21T07:44:57;92274.88;;;1.57
70415;BMP280;57837;52.064;113.478;2023-03-21T07:48:26;92281.03;;;1.44
70415;BMP280;57837;52.064;113.478;2023-03-21T07:51:29;92283.41;;;1.51
70415;BMP280;57837;52.064;113.478;2023-03-21T07:54:33;92273.13;;;1.54
70415;BMP280;57837;52.064;113.478;2023-03-21T07:57:38;92264.22;;;1.46
70415;BMP280;57837;52.064;113.478;2023-03-21T08:00:42;92277.88;;;1.11
70415;BMP280;57837;52.064;113.478;2023-03-21T08:03:46;92272.06;;;1.10
70415;BMP280;57837;52.064;113.478;2023-03-21T08:06:52;92294.78;;;1.05
70415;BMP280;57837;52.064;113.478;2023-03-21T08:09:56;92289.47;;;0.83
70415;BMP280;57837;52.064;113.478;2023-03-21T08:13:02;92286.38;;;0.75
70415;BMP280;57837;52.064;113.478;2023-03-21T08:16:06;92291.94;;;0.86
70415;BMP280;57837;52.064;113.478;2023-03-21T08:19:10;92287.91;;;0.73
70415;BMP280;57837;52.064;113.478;2023-03-21T08:22:14;92284.31;;;0.70
70415;BMP280;57837;52.064;113.478;2023-03-21T08:25:19;92276.28;;;0.55
70415;BMP280;57837;52.064;113.478;2023-03-21T08:28:24;92290.91;;;0.67
70415;BMP280;57837;52.064;113.478;2023-03-21T08:31:27;92281.53;;;0.32
70415;BMP280;57837;52.064;113.478;2023-03-21T08:34:30;92288.53;;;0.28
70415;BMP280;57837;52.064;113.478;2023-03-21T08:37:33;92281.94;;;0.30
70415;BMP280;57837;52.064;113.478;2023-03-21T08:40:37;92292.34;;;0.36
70415;BMP280;57837;52.064;113.478;2023-03-21T08:43:40;92290.88;;;0.03
70415;BMP280;57837;52.064;113.478;2023-03-21T08:46:44;92296.63;;;-0.13
70415;BMP280;57837;52.064;113.478;2023-03-21T08:49:48;92298.03;;;-0.28
70415;BMP280;57837;52.064;113.478;2023-03-21T08:52:52;92287.06;;;-0.25
70415;BMP280;57837;52.064;113.478;2023-03-21T08:55:56;92294.44;;;-0.31
70415;BMP280;57837;52.064;113.478;2023-03-21T08:59:00;92273.97;;;-0.24
70415;BMP280;57837;52.064;113.478;2023-03-21T09:02:04;92293.34;;;-0.30
70415;BMP280;57837;52.064;113.478;2023-03-21T09:05:09;92299.41;;;-0.47
70415;BMP280;57837;52.064;113.478;2023-03-21T09:08:13;92309.59;;;-0.47
70415;BMP280;57837;52.064;113.478;2023-03-21T09:11:16;92303.41;;;-0.46
70415;BMP280;57837;52.064;113.478;2023-03-21T09:14:19;92307.59;;;-0.56
70415;BMP280;57837;52.064;113.478;2023-03-21T09:17:29;92312.78;;;-0.63
70415;BMP280;57837;52.064;113.478;2023-03-21T09:20:33;92306.81;;;-0.76
70415;BMP280;57837;52.064;113.478;2023-03-21T09:23:40;92285.78;;;-0.77
70415;BMP280;57837;52.064;113.478;2023-03-21T09:26:44;92303.19;;;-0.75
70415;BMP280;57837;52.064;113.478;2023-03-21T09:29:49;92324.03;;;-0.84
70415;BMP280;57837;52.064;113.478;2023-03-21T09:32:58;92305.41;;;-1.01
70415;BMP280;57837;52.064;113.478;2023-03-21T09:36:02;92312.84;;;-1.10
70415;BMP280;57837;52.064;113.478;2023-03-21T09:39:14;92314.47;;;-1.23
70415;BMP280;57837;52.064;113.478;2023-03-21T09:46:04;92304.25;;;-1.43
70415;BMP280;57837;52.064;113.478;2023-03-21T09:49:23;92319.34;;;-1.36
70415;BMP280;57837;52.064;113.478;2023-03-21T09:55:54;92328.84;;;-1.40
70415;BMP280;57837;52.064;113.478;2023-03-21T09:58:59;92331.03;;;-1.42
70415;BMP280;57837;52.064;113.478;2023-03-21T10:02:37;92331.31;;;-1.36
70415;BMP280;57837;52.064;113.478;2023-03-21T10:05:41;92339.50;;;-1.25
70415;BMP280;57837;52.064;113.478;2023-03-21T10:08:50;92351.38;;;-1.45
70415;BMP280;57837;52.064;113.478;2023-03-21T10:12:01;92345.53;;;-1.69
70415;BMP280;57837;52.064;113.478;2023-03-21T10:15:05;92350.69;;;-1.76
70415;BMP280;57837;52.064;113.478;2023-03-21T10:18:21;92338.31;;;-2.01
70415;BMP280;57837;52.064;113.478;2023-03-21T10:21:27;92343.91;;;-2.17
70415;BMP280;57837;52.064;113.478;2023-03-21T10:24:50;92363.06;;;-2.16
70415;BMP280;57837;52.064;113.478;2023-03-21T10:27:53;92359.56;;;-2.25
70415;BMP280;57837;52.064;113.478;2023-03-21T10:31:06;92357.00;;;-2.22
70415;BMP280;57837;52.064;113.478;2023-03-21T10:37:31;92373.69;;;-2.24
70415;BMP280;57837;52.064;113.478;2023-03-21T10:40:35;92374.75;;;-2.22
70415;BMP280;57837;52.064;113.478;2023-03-21T10:43:40;92364.31;;;-2.31
70415;BMP280;57837;52.064;113.478;2023-03-21T10:47:05;92375.91;;;-2.34
70415;BMP280;57837;52.064;113.478;2023-03-21T10:50:13;92370.53;;;-2.39
70415;BMP280;57837;52.064;113.478;2023-03-21T10:53:26;92383.59;;;-2.44
70415;BMP280;57837;52.064;113.478;2023-03-21T10:56:35;92396.97;;;-2.44
70415;BMP280;57837;52.064;113.478;2023-03-21T10:59:50;92401.81;;;-2.56
70415;BMP280;57837;52.064;113.478;2023-03-21T11:02:56;92398.97;;;-2.66
70415;BMP280;57837;52.064;113.478;2023-03-21T11:09:26;92409.22;;;-2.80
70415;BMP280;57837;52.064;113.478;2023-03-21T11:12:47;92415.38;;;-2.81
70415;BMP280;57837;52.064;113.478;2023-03-21T11:15:56;92416.91;;;-2.97
70415;BMP280;57837;52.064;113.478;2023-03-21T11:19:10;92428.47;;;-3.00
70415;BMP280;57837;52.064;113.478;2023-03-21T11:22:15;92426.72;;;-3.07
70415;BMP280;57837;52.064;113.478;2023-03-21T11:25:24;92423.16;;;-3.13
70415;BMP280;57837;52.064;113.478;2023-03-21T11:28:36;92420.31;;;-3.22
70415;BMP280;57837;52.064;113.478;2023-03-21T11:31:41;92403.41;;;-3.36
70415;BMP280;57837;52.064;113.478;2023-03-21T11:34:56;92415.72;;;-3.45
70415;BMP280;57837;52.064;113.478;2023-03-21T11:38:02;92421.50;;;-3.51
70415;BMP280;57837;52.064;113.478;2023-03-21T11:41:06;92433.78;;;-3.50
70415;BMP280;57837;52.064;113.478;2023-03-21T11:44:31;92438.16;;;-3.57
70415;BMP280;57837;52.064;113.478;2023-03-21T11:47:35;92437.84;;;-3.70
70415;BMP280;57837;52.064;113.478;2023-03-21T11:50:42;92439.66;;;-3.78
70415;BMP280;57837;52.064;113.478;2023-03-21T11:54:15;92450.09;;;-3.76
70415;BMP280;57837;52.064;113.478;2023-03-21T12:00:58;92463.47;;;-3.79
70415;BMP280;57837;52.064;113.478;2023-03-21T12:10:52;92476.81;;;-3.78
70415;BMP280;57837;52.064;113.478;2023-03-21T12:21:51;92477.56;;;-3.81
70415;BMP280;57837;52.064;113.478;2023-03-21T12:25:03;92494.53;;;-4.03
70415;BMP280;57837;52.064;113.478;2023-03-21T12:28:45;92487.38;;;-4.15
70415;BMP280;57837;52.064;113.478;2023-03-21T12:32:05;92504.66;;;-4.21
70415;BMP280;57837;52.064;113.478;2023-03-21T12:42:23;92519.44;;;-4.30
70415;BMP280;57837;52.064;113.478;2023-03-21T12:45:34;92523.03;;;-4.38
70415;BMP280;57837;52.064;113.478;2023-03-21T12:52:15;92535.66;;;-4.49
70415;BMP280;57837;52.064;113.478;2023-03-21T12:55:22;92529.84;;;-4.67
70415;BMP280;57837;52.064;113.478;2023-03-21T12:58:29;92540.63;;;-4.77
70415;BMP280;57837;52.064;113.478;2023-03-21T13:01:36;92546.00;;;-4.79
70415;BMP280;57837;52.064;113.478;2023-03-21T13:04:45;92545.28;;;-4.79
70415;BMP280;57837;52.064;113.478;2023-03-21T13:07:53;92548.53;;;-4.79
70415;BMP280;57837;52.064;113.478;2023-03-21T13:11:01;92552.84;;;-4.83
70415;BMP280;57837;52.064;113.478;2023-03-21T13:17:35;92572.03;;;-4.68
70415;BMP280;57837;52.064;113.478;2023-03-21T13:20:57;92566.97;;;-4.61
70415;BMP280;57837;52.064;113.478;2023-03-21T13:24:27;92578.13;;;-4.65
70415;BMP280;57837;52.064;113.478;2023-03-21T13:27:35;92589.31;;;-4.73
70415;BMP280;57837;52.064;113.478;2023-03-21T13:30:46;92567.94;;;-5.01
70415;BMP280;57837;52.064;113.478;2023-03-21T13:33:53;92575.75;;;-5.16
70415;BMP280;57837;52.064;113.478;2023-03-21T13:36:57;92581.50;;;-5.23
70415;BMP280;57837;52.064;113.478;2023-03-21T13:40:05;92584.28;;;-5.39
70415;BMP280;57837;52.064;113.478;2023-03-21T13:46:44;92587.16;;;-5.40
70415;BMP280;57837;52.064;113.478;2023-03-21T13:50:25;92600.97;;;-5.23
70415;BMP280;57837;52.064;113.478;2023-03-21T13:53:39;92603.06;;;-5.29
70415;BMP280;57837;52.064;113.478;2023-03-21T14:00:14;92602.41;;;-5.22
70415;BMP280;57837;52.064;113.478;2023-03-21T14:03:21;92607.13;;;-5.10
70415;BMP280;57837;52.064;113.478;2023-03-21T14:06:37;92625.81;;;-5.22
70415;BMP280;57837;52.064;113.478;2023-03-21T14:09:45;92618.50;;;-5.34
70415;BMP280;57837;52.064;113.478;2023-03-21T14:12:50;92618.13;;;-5.40
70415;BMP280;57837;52.064;113.478;2023-03-21T14:16:09;92621.66;;;-5.51
70415;BMP280;57837;52.064;113.478;2023-03-21T14:19:14;92629.47;;;-5.60
70415;BMP280;57837;52.064;113.478;2023-03-21T14:22:18;92617.53;;;-5.70
70415;BMP280;57837;52.064;113.478;2023-03-21T14:25:25;92626.59;;;-5.59
70415;BMP280;57837;52.064;113.478;2023-03-21T14:28:48;92639.53;;;-5.64
70415;BMP280;57837;52.064;113.478;2023-03-21T14:31:55;92630.16;;;-5.63
70415;BMP280;57837;52.064;113.478;2023-03-21T14:35:00;92625.50;;;-5.61
70415;BMP280;57837;52.064;113.478;2023-03-21T14:38:05;92636.38;;;-5.53
70415;BMP280;57837;52.064;113.478;2023-03-21T14:41:23;92640.56;;;-5.68
70415;BMP280;57837;52.064;113.478;2023-03-21T14:44:38;92635.09;;;-5.77
70415;BMP280;57837;52.064;113.478;2023-03-21T14:47:56;92630.72;;;-5.88
70415;BMP280;57837;52.064;113.478;2023-03-21T14:51:03;92632.44;;;-5.92
70415;BMP280;57837;52.064;113.478;2023-03-21T14:54:13;92628.84;;;-5.94
70415;BMP280;57837;52.064;113.478;2023-03-21T14:57:26;92643.72;;;-5.78
70415;BMP280;57837;52.064;113.478;2023-03-21T15:00:31;92639.81;;;-5.72
70415;BMP280;57837;52.064;113.478;2023-03-21T15:03:37;92646.59;;;-5.80
70415;BMP280;57837;52.064;113.478;2023-03-21T15:10:01;92643.88;;;-6.01
70415;BMP280;57837;52.064;113.478;2023-03-21T15:13:15;92651.06;;;-6.03
70415;BMP280;57837;52.064;113.478;2023-03-21T15:16:20;92645.13;;;-6.18
70415;BMP280;57837;52.064;113.478;2023-03-21T15:19:29;92658.38;;;-6.25
70415;BMP280;57837;52.064;113.478;2023-03-21T15:22:38;92643.66;;;-6.23
70415;BMP280;57837;52.064;113.478;2023-03-21T15:25:43;92648.94;;;-6.35
70415;BMP280;57837;52.064;113.478;2023-03-21T15:28:49;92654.16;;;-6.47
70415;BMP280;57837;52.064;113.478;2023-03-21T15:31:58;92648.38;;;-6.51
70415;BMP280;57837;52.064;113.478;2023-03-21T15:35:17;92645.69;;;-6.65
70415;BMP280;57837;52.064;113.478;2023-03-21T15:42:22;92658.63;;;-6.67
70415;BMP280;57837;52.064;113.478;2023-03-21T15:45:27;92650.06;;;-6.62
70415;BMP280;57837;52.064;113.478;2023-03-21T15:48:33;92650.50;;;-6.53
70415;BMP280;57837;52.064;113.478;2023-03-21T15:51:39;92656.91;;;-6.59
70415;BMP280;57837;52.064;113.478;2023-03-21T15:54:46;92645.41;;;-6.60
70415;BMP280;57837;52.064;113.478;2023-03-21T15:57:58;92649.31;;;-6.63
70415;BMP280;57837;52.064;113.478;2023-03-21T16:01:09;92671.22;;;-6.63
70415;BMP280;57837;52.064;113.478;2023-03-21T16:04:15;92656.34;;;-6.75
70415;BMP280;57837;52.064;113.478;2023-03-21T16:07:20;92653.44;;;-6.77
70415;BMP280;57837;52.064;113.478;2023-03-21T16:10:35;92650.84;;;-6.85
70415;BMP280;57837;52.064;113.478;2023-03-21T16:13:39;92661.63;;;-6.84
70415;BMP280;57837;52.064;113.478;2023-03-21T16:16:44;92650.94;;;-6.77
70415;BMP280;57837;52.064;113.478;2023-03-21T16:19:48;92648.75;;;-6.79
70415;BMP280;57837;52.064;113.478;2023-03-21T16:22:52;92657.06;;;-6.75
70415;BMP280;57837;52.064;113.478;2023-03-21T16:25:56;92655.91;;;-6.81
70415;BMP280;57837;52.064;113.478;2023-03-21T16:29:02;92657.78;;;-6.74
70415;BMP280;57837;52.064;113.478;2023-03-21T16:32:14;92644.16;;;-6.73
70415;BMP280;57837;52.064;113.478;2023-03-21T16:35:18;92659.03;;;-6.91
70415;BMP280;57837;52.064;113.478;2023-03-21T16:38:25;92668.41;;;-6.88
70415;BMP280;57837;52.064;113.478;2023-03-21T16:41:28;92671.00;;;-6.81
70415;BMP280;57837;52.064;113.478;2023-03-21T16:44:32;92676.69;;;-7.11
70415;BMP280;57837;52.064;113.478;2023-03-21T16:47:36;92675.03;;;-7.26
70415;BMP280;57837;52.064;113.478;2023-03-21T16:50:41;92671.75;;;-7.30
70415;BMP280;57837;52.064;113.478;2023-03-21T16:53:45;92681.13;;;-7.27
70415;BMP280;57837;52.064;113.478;2023-03-21T16:56:51;92693.00;;;-7.24
70415;BMP280;57837;52.064;113.478;2023-03-21T16:59:55;92685.25;;;-7.38
70415;BMP280;57837;52.064;113.478;2023-03-21T17:03:04;92691.84;;;-7.53
70415;BMP280;57837;52.064;113.478;2023-03-21T17:06:20;92715.41;;;-7.57
70415;BMP280;57837;52.064;113.478;2023-03-21T17:09:24;92710.00;;;-7.59
70415;BMP280;57837;52.064;113.478;2023-03-21T17:12:31;92720.06;;;-7.59
70415;BMP280;57837;52.064;113.478;2023-03-21T17:15:35;92727.34;;;-7.74
70415;BMP280;57837;52.064;113.478;2023-03-21T17:18:39;92731.38;;;-7.69
70415;BMP280;57837;52.064;113.478;2023-03-21T17:21:44;92738.13;;;-7.73
70415;BMP280;57837;52.064;113.478;2023-03-21T17:24:48;92745.66;;;-7.73
70415;BMP280;57837;52.064;113.478;2023-03-21T17:27:52;92754.50;;;-7.79
70415;BMP280;57837;52.064;113.478;2023-03-21T17:30:56;92753.19;;;-7.73
70415;BMP280;57837;52.064;113.478;2023-03-21T17:34:00;92754.56;;;-7.76
70415;BMP280;57837;52.064;113.478;2023-03-21T17:37:08;92755.97;;;-7.78
70415;BMP280;57837;52.064;113.478;2023-03-21T17:40:13;92749.06;;;-7.81
70415;BMP280;57837;52.064;113.478;2023-03-21T17:43:18;92760.66;;;-7.77
70415;BMP280;57837;52.064;113.478;2023-03-21T17:46:24;92754.44;;;-7.83
70415;BMP280;57837;52.064;113.478;2023-03-21T17:49:29;92750.75;;;-7.89
70415;BMP280;57837;52.064;113.478;2023-03-21T17:52:33;92762.47;;;-7.93
70415;BMP280;57837;52.064;113.478;2023-03-21T17:55:37;92765.13;;;-7.86
70415;BMP280;57837;52.064;113.478;2023-03-21T17:58:42;92760.06;;;-7.89
70415;BMP280;57837;52.064;113.478;2023-03-21T18:01:46;92755.16;;;-7.82
70415;BMP280;57837;52.064;113.478;2023-03-21T18:04:50;92764.66;;;-7.91
70415;BMP280;57837;52.064;113.478;2023-03-21T18:07:54;92759.31;;;-8.09
70415;BMP280;57837;52.064;113.478;2023-03-21T18:11:15;92753.25;;;-8.08
70415;BMP280;57837;52.064;113.478;2023-03-21T18:14:19;92766.03;;;-8.13
70415;BMP280;57837;52.064;113.478;2023-03-21T18:17:30;92760.44;;;-8.07
70415;BMP280;57837;52.064;113.478;2023-03-21T18:20:34;92762.88;;;-8.10
70415;BMP280;57837;52.064;113.478;2023-03-21T18:23:55;92755.75;;;-8.08
70415;BMP280;57837;52.064;113.478;2023-03-21T18:26:59;92758.50;;;-8.13
70415;BMP280;57837;52.064;113.478;2023-03-21T18:30:05;92768.13;;;-8.15
70415;BMP280;57837;52.064;113.478;2023-03-21T18:33:31;92767.28;;;-8.23
70415;BMP280;57837;52.064;113.478;2023-03-21T18:36:34;92763.31;;;-8.24
70415;BMP280;57837;52.064;113.478;2023-03-21T18:39:40;92773.38;;;-8.40
70415;BMP280;57837;52.064;113.478;2023-03-21T18:42:46;92779.19;;;-8.36
70415;BMP280;57837;52.064;113.478;2023-03-21T18:46:11;92783.63;;;-8.45
70415;BMP280;57837;52.064;113.478;2023-03-21T18:49:15;92780.34;;;-8.49
70415;BMP280;57837;52.064;113.478;2023-03-21T18:52:39;92787.47;;;-8.51
70415;BMP280;57837;52.064;113.478;2023-03-21T18:55:43;92794.84;;;-8.58
70415;BMP280;57837;52.064;113.478;2023-03-21T18:58:51;92799.13;;;-8.58
70415;BMP280;57837;52.064;113.478;2023-03-21T19:01:54;92787.63;;;-8.59
70415;BMP280;57837;52.064;113.478;2023-03-21T19:04:58;92794.34;;;-8.64